Time;durP1;ratioP1;P1;durP2;ratioP2;P2;SDS_P1;SDS_P2;PMS_P1;PMS_P2;Temp;Humidity;BMP_temperature;BMP_pressure;BME280_temperature;BME280_humidity;BME280_pressure;Samples;Min_cycle;Max_cycle;Signal;HPM_P1;HPM_P2
2022/07/23 00:02:20;;;;;;;12.23;7.47;;;14.70;99.90;;;;;;5096743;28;20411;-69
2022/07/23 00:04:46;;;;;;;9.43;7.20;;;14.60;99.90;;;;;;5096699;28;20412;-69
2022/07/23 00:07:12;;;;;;;9.73;7.47;;;14.60;99.90;;;;;;5096340;28;20039;-68
2022/07/23 00:09:37;;;;;;;9.95;7.05;;;14.50;99.90;;;;;;5096878;28;20040;-71
2022/07/23 00:12:03;;;;;;;11.45;7.80;;;14.60;99.90;;;;;;5078657;28;20108;-68
2022/07/23 00:14:29;;;;;;;10.73;7.72;;;14.60;99.90;;;;;;5096608;28;20465;-71
2022/07/23 00:16:54;;;;;;;12.98;8.23;;;14.50;99.90;;;;;;5096490;28;20508;-68
2022/07/23 00:19:20;;;;;;;10.05;7.57;;;14.50;99.90;;;;;;5096316;28;20051;-68
2022/07/23 00:21:45;;;;;;;11.13;7.85;;;14.50;99.90;;;;;;5096212;28;20164;-70
2022/07/23 00:24:11;;;;;;;19.83;9.00;;;14.50;99.90;;;;;;5096470;28;20044;-70
2022/07/23 00:26:36;;;;;;;14.50;8.70;;;14.50;99.90;;;;;;5078623;28;20066;-70
2022/07/23 00:29:02;;;;;;;10.70;8.57;;;14.40;99.90;;;;;;5096151;28;20454;-68
2022/07/23 00:31:27;;;;;;;13.40;8.50;;;14.50;99.90;;;;;;5096017;28;20052;-70
2022/07/23 00:33:56;;;;;;;12.60;8.93;;;14.40;99.90;;;;;;5095475;28;20035;-71
2022/07/23 00:36:23;;;;;;;13.50;10.65;;;14.30;99.90;;;;;;5095967;28;20419;-69
2022/07/23 00:38:49;;;;;;;11.23;9.20;;;14.30;99.90;;;;;;5095796;28;20453;-68
2022/07/23 00:41:15;;;;;;;10.40;8.57;;;14.20;99.90;;;;;;5096042;28;20098;-70
2022/07/23 00:43:40;;;;;;;12.50;8.68;;;14.10;99.90;;;;;;5095968;28;20075;-70
2022/07/23 00:46:06;;;;;;;9.32;8.10;;;14.10;99.90;;;;;;5096044;28;20075;-70
2022/07/23 00:48:31;;;;;;;13.82;9.13;;;14.20;99.90;;;;;;5095796;28;20058;-68
2022/07/23 00:50:57;;;;;;;12.07;8.98;;;14.20;99.90;;;;;;5095695;28;20086;-69
2022/07/23 00:53:23;;;;;;;10.88;8.63;;;14.20;99.90;;;;;;5095949;28;20048;-70
2022/07/23 00:55:49;;;;;;;12.48;8.88;;;14.10;99.90;;;;;;5095684;28;20075;-67
2022/07/23 00:58:16;;;;;;;13.80;8.70;;;14.10;99.90;;;;;;5095943;28;20465;-71
2022/07/23 01:00:41;;;;;;;9.38;7.90;;;14.10;99.90;;;;;;5095389;28;20119;-68
2022/07/23 01:03:07;;;;;;;9.30;8.07;;;14.00;99.90;;;;;;5095817;28;20110;-69
2022/07/23 01:05:33;;;;;;;12.35;7.75;;;14.10;99.90;;;;;;5095478;28;20044;-70
2022/07/23 01:07:59;;;;;;;10.75;7.93;;;14.10;99.90;;;;;;5095585;28;20358;-70
2022/07/23 01:10:31;;;;;;;9.55;7.50;;;14.10;99.90;;;;;;5095496;28;20096;-68
2022/07/23 01:12:58;;;;;;;11.90;8.20;;;14.00;99.90;;;;;;5095722;28;20104;-69
2022/07/23 01:15:24;;;;;;;13.70;9.63;;;14.00;99.90;;;;;;5095519;28;20036;-70
2022/07/23 01:17:50;;;;;;;13.70;10.00;;;14.00;99.90;;;;;;5095461;28;20055;-68
2022/07/23 01:20:16;;;;;;;10.60;8.00;;;14.00;99.90;;;;;;5095555;28;20048;-69
2022/07/23 01:22:42;;;;;;;10.68;8.50;;;13.90;99.90;;;;;;5104188;28;20047;-67
2022/07/23 01:25:08;;;;;;;11.15;7.68;;;13.90;99.90;;;;;;5105218;28;20044;-67
2022/07/23 01:27:33;;;;;;;11.95;8.70;;;14.00;99.90;;;;;;5104705;28;20503;-67
2022/07/23 01:30:00;;;;;;;12.70;8.10;;;14.00;99.90;;;;;;5104327;28;20047;-67
2022/07/23 01:32:26;;;;;;;10.13;8.32;;;13.90;99.90;;;;;;5104367;28;20048;-67
2022/07/23 01:34:52;;;;;;;12.52;8.30;;;14.00;99.90;;;;;;5101020;28;20404;-69
2022/07/23 01:37:17;;;;;;;9.25;7.80;;;13.90;99.90;;;;;;5095300;28;20044;-69
2022/07/23 01:39:43;;;;;;;13.30;9.05;;;13.90;99.90;;;;;;5088586;28;20451;-70
2022/07/23 01:42:09;;;;;;;14.15;10.10;;;13.90;99.90;;;;;;5095167;28;20043;-68
2022/07/23 01:44:34;;;;;;;13.50;10.50;;;14.00;99.90;;;;;;5097639;28;20036;-68
2022/07/23 01:47:00;;;;;;;14.40;9.95;;;14.00;99.90;;;;;;5099297;28;20036;-68
2022/07/23 01:49:25;;;;;;;14.35;10.27;;;14.10;99.90;;;;;;5099170;28;20367;-70
2022/07/23 01:52:00;;;;;;;10.48;9.10;;;14.10;99.90;;;;;;5099178;28;20404;-67
2022/07/23 01:54:27;;;;;;;12.05;9.93;;;14.10;99.90;;;;;;5081039;28;20044;-68
2022/07/23 01:56:52;;;;;;;13.98;9.38;;;14.20;99.90;;;;;;5099148;28;20058;-68
2022/07/23 01:59:18;;;;;;;12.60;8.65;;;14.10;99.90;;;;;;5099141;28;20036;-69
2022/07/23 02:01:44;;;;;;;10.48;8.05;;;14.10;99.90;;;;;;5081146;28;20421;-71
2022/07/23 02:04:09;;;;;;;10.05;7.47;;;14.10;99.90;;;;;;5099121;28;20051;-68
2022/07/23 02:06:35;;;;;;;10.75;7.57;;;14.10;99.90;;;;;;5098994;28;20051;-70
2022/07/23 02:09:01;;;;;;;14.18;8.45;;;14.10;99.90;;;;;;5098759;28;20339;-70
2022/07/23 02:11:26;;;;;;;10.20;7.70;;;14.10;99.90;;;;;;5099146;28;20047;-68
2022/07/23 02:13:52;;;;;;;10.00;8.23;;;14.00;99.90;;;;;;5098871;28;20040;-67
2022/07/23 02:16:17;;;;;;;11.10;7.28;;;14.00;99.90;;;;;;5098817;28;20113;-68
2022/07/23 02:18:43;;;;;;;14.77;8.25;;;13.80;99.90;;;;;;5098665;28;20044;-69
2022/07/23 02:21:09;;;;;;;10.27;7.70;;;13.80;99.90;;;;;;5098678;28;20047;-69
2022/07/23 02:23:34;;;;;;;13.70;8.50;;;13.70;99.90;;;;;;5098629;28;20435;-67
2022/07/23 02:26:00;;;;;;;10.30;7.15;;;13.70;99.90;;;;;;5098597;28;20050;-69
2022/07/23 02:28:25;;;;;;;12.93;8.38;;;13.60;99.90;;;;;;5097883;28;20055;-68
2022/07/23 02:30:51;;;;;;;13.30;8.27;;;13.60;99.90;;;;;;5098559;28;20063;-70
2022/07/23 02:33:16;;;;;;;11.32;7.38;;;13.60;99.90;;;;;;5098380;28;20139;-67
2022/07/23 02:35:42;;;;;;;9.60;7.45;;;13.60;99.90;;;;;;5063634;28;20462;-69
2022/07/23 02:38:07;;;;;;;9.35;7.60;;;13.50;99.90;;;;;;5098415;28;20141;-70
2022/07/23 02:40:33;;;;;;;10.65;7.25;;;13.50;99.90;;;;;;5098330;28;20044;-69
2022/07/23 02:42:59;;;;;;;9.63;6.90;;;13.50;99.90;;;;;;5098457;28;20040;-68
2022/07/23 02:45:24;;;;;;;10.02;8.18;;;13.40;99.90;;;;;;5098219;28;20113;-72
2022/07/23 02:47:50;;;;;;;9.77;7.57;;;13.50;99.90;;;;;;5098046;28;20048;-69
2022/07/23 02:50:15;;;;;;;13.05;8.18;;;13.40;99.90;;;;;;5098252;28;20047;-69
2022/07/23 02:52:41;;;;;;;8.57;6.75;;;13.40;99.90;;;;;;5098331;28;20065;-71
2022/07/23 02:55:07;;;;;;;8.57;6.68;;;13.50;99.90;;;;;;5079621;28;20048;-71
2022/07/23 02:57:33;;;;;;;8.25;6.78;;;13.40;99.90;;;;;;5097922;28;20126;-68
2022/07/23 02:59:58;;;;;;;12.10;7.68;;;13.40;99.90;;;;;;5098059;28;20189;-71
2022/07/23 03:02:24;;;;;;;9.02;6.40;;;13.40;99.90;;;;;;5080574;28;20446;-68
2022/07/23 03:04:50;;;;;;;9.75;7.30;;;13.40;99.90;;;;;;5097929;28;20443;-69
2022/07/23 03:07:18;;;;;;;9.75;7.22;;;13.40;99.90;;;;;;5080200;28;20509;-69
2022/07/23 03:09:44;;;;;;;13.25;8.13;;;13.40;99.90;;;;;;5079695;28;20094;-70
2022/07/23 03:12:10;;;;;;;11.90;7.32;;;13.40;99.90;;;;;;5097812;28;20443;-68
2022/07/23 03:14:35;;;;;;;9.05;6.30;;;13.50;99.90;;;;;;5097675;28;20042;-69
2022/07/23 03:17:01;;;;;;;10.35;6.22;;;13.50;99.90;;;;;;5097547;28;20044;-67
2022/07/23 03:19:26;;;;;;;9.23;6.13;;;13.40;99.90;;;;;;5079905;28;20369;-69
2022/07/23 03:21:52;;;;;;;7.15;6.10;;;13.40;99.90;;;;;;5097509;28;20090;-68
2022/07/23 03:24:18;;;;;;;9.20;6.35;;;13.50;99.90;;;;;;5097645;28;20055;-67
2022/07/23 03:26:44;;;;;;;9.55;6.15;;;13.50;99.90;;;;;;5097447;28;20473;-68
2022/07/23 03:29:09;;;;;;;8.27;5.72;;;13.50;99.90;;;;;;5079115;28;20048;-69
2022/07/23 03:31:35;;;;;;;10.15;5.97;;;13.50;99.90;;;;;;5097178;28;20450;-70
2022/07/23 03:34:00;;;;;;;9.75;6.30;;;13.60;99.90;;;;;;5079798;28;20048;-69
2022/07/23 03:36:26;;;;;;;13.88;6.88;;;13.50;99.90;;;;;;5097258;28;20044;-69
2022/07/23 03:38:52;;;;;;;8.63;6.55;;;13.50;99.90;;;;;;5097207;28;20094;-71
2022/07/23 03:41:18;;;;;;;8.80;6.20;;;13.50;99.90;;;;;;5097399;28;20054;-67
2022/07/23 03:43:44;;;;;;;10.32;6.07;;;13.40;99.90;;;;;;5097087;28;20063;-70
2022/07/23 03:46:10;;;;;;;6.78;5.68;;;13.50;99.90;;;;;;5097046;28;20438;-70
2022/07/23 03:48:36;;;;;;;6.80;6.07;;;13.50;99.90;;;;;;5097016;28;20256;-70
2022/07/23 03:51:02;;;;;;;8.65;6.03;;;13.40;99.90;;;;;;5096964;28;20079;-69
2022/07/23 03:53:27;;;;;;;10.40;6.50;;;13.30;99.90;;;;;;5097334;28;20044;-70
2022/07/23 03:55:53;;;;;;;8.65;6.55;;;13.40;99.90;;;;;;5096858;28;20468;-68
2022/07/23 03:58:18;;;;;;;8.43;6.07;;;13.40;99.90;;;;;;5096801;28;20378;-68
2022/07/23 04:00:44;;;;;;;8.40;5.90;;;13.40;99.90;;;;;;5079017;28;20048;-68
2022/07/23 04:03:10;;;;;;;9.82;6.85;;;13.30;99.90;;;;;;5079111;28;20429;-69
2022/07/23 04:05:35;;;;;;;8.20;5.85;;;13.40;99.90;;;;;;5062218;28;20083;-69
2022/07/23 04:08:01;;;;;;;11.57;7.38;;;13.40;99.90;;;;;;5095416;28;20036;-69
2022/07/23 04:10:26;;;;;;;10.30;6.57;;;13.30;99.90;;;;;;5096692;28;20058;-68
2022/07/23 04:12:52;;;;;;;7.97;6.40;;;13.30;99.90;;;;;;5096550;28;20468;-68
2022/07/23 04:15:17;;;;;;;8.63;6.25;;;13.40;99.90;;;;;;5096440;28;20044;-68
2022/07/23 04:17:43;;;;;;;12.40;6.38;;;13.40;99.90;;;;;;5079027;28;20370;-69
2022/07/23 04:20:10;;;;;;;11.48;7.03;;;13.30;99.90;;;;;;5096166;28;20036;-70
2022/07/23 04:22:36;;;;;;;11.30;6.63;;;13.30;99.90;;;;;;5096372;28;20047;-71
2022/07/23 04:25:01;;;;;;;11.80;6.88;;;13.30;99.90;;;;;;5096493;28;20373;-69
2022/07/23 04:27:27;;;;;;;9.63;6.95;;;13.30;99.90;;;;;;5078079;28;20330;-68
2022/07/23 04:29:53;;;;;;;12.75;7.50;;;13.30;99.90;;;;;;5096196;28;20056;-70
2022/07/23 04:32:19;;;;;;;9.52;6.60;;;13.30;99.90;;;;;;5096018;28;20314;-69
2022/07/23 04:34:44;;;;;;;13.07;6.45;;;13.30;99.90;;;;;;5096007;28;20047;-68
2022/07/23 04:37:10;;;;;;;9.35;6.60;;;13.30;99.90;;;;;;5078447;28;20048;-70
2022/07/23 04:39:35;;;;;;;7.93;7.00;;;13.30;99.90;;;;;;5078038;28;20074;-70
2022/07/23 04:42:02;;;;;;;14.68;7.00;;;13.30;99.90;;;;;;5078066;28;20105;-68
2022/07/23 04:44:28;;;;;;;9.30;6.57;;;13.30;99.90;;;;;;5077968;28;20052;-70
2022/07/23 04:46:53;;;;;;;9.88;6.43;;;13.30;99.90;;;;;;5077822;28;20044;-68
2022/07/23 04:49:19;;;;;;;10.07;5.93;;;13.30;99.90;;;;;;5095607;28;20115;-69
2022/07/23 04:51:44;;;;;;;8.48;6.25;;;13.40;99.90;;;;;;5095804;28;20090;-70
2022/07/23 04:54:10;;;;;;;7.90;5.78;;;13.40;99.90;;;;;;5077844;28;20113;-69
2022/07/23 04:56:35;;;;;;;7.05;5.50;;;13.40;99.90;;;;;;5095797;28;20040;-68
2022/07/23 04:59:01;;;;;;;9.45;5.30;;;13.40;99.90;;;;;;5095739;28;20040;-70
2022/07/23 05:01:26;;;;;;;7.65;6.15;;;13.40;99.90;;;;;;5095527;28;20047;-68
2022/07/23 05:03:52;;;;;;;7.75;5.45;;;13.40;99.90;;;;;;5095665;28;20048;-67
2022/07/23 05:06:18;;;;;;;6.50;5.22;;;13.40;99.90;;;;;;5095574;28;20343;-70
2022/07/23 05:08:43;;;;;;;12.75;6.55;;;13.30;99.90;;;;;;5095487;28;20110;-71
2022/07/23 05:11:09;;;;;;;7.45;5.07;;;13.40;99.90;;;;;;5061195;28;20040;-70
2022/07/23 05:13:34;;;;;;;7.60;5.32;;;13.40;99.90;;;;;;5078019;28;20056;-69
2022/07/23 05:16:00;;;;;;;9.98;5.50;;;13.40;99.90;;;;;;5095366;28;20047;-69
2022/07/23 05:18:25;;;;;;;8.80;4.95;;;13.50;99.90;;;;;;5095000;28;20377;-70
2022/07/23 05:20:51;;;;;;;8.57;5.25;;;13.50;99.90;;;;;;5095293;28;20396;-67
2022/07/23 05:23:16;;;;;;;9.10;5.15;;;13.60;99.90;;;;;;5095416;28;20051;-69
2022/07/23 05:25:42;;;;;;;8.57;4.50;;;13.50;99.90;;;;;;5095385;28;20048;-70
2022/07/23 05:28:08;;;;;;;7.40;4.20;;;13.60;99.90;;;;;;5095032;28;20083;-67
2022/07/23 05:30:34;;;;;;;5.18;4.28;;;13.60;99.90;;;;;;5095223;28;20131;-70
2022/07/23 05:33:00;;;;;;;6.63;4.13;;;13.70;99.90;;;;;;5095218;28;20445;-68
2022/07/23 05:35:25;;;;;;;6.38;4.00;;;13.70;99.90;;;;;;5077671;28;20473;-70
2022/07/23 05:37:52;;;;;;;7.13;4.00;;;13.70;99.90;;;;;;5095442;28;20051;-67
2022/07/23 05:40:18;;;;;;;8.23;4.25;;;13.80;99.90;;;;;;5095311;28;20047;-69
2022/07/23 05:42:43;;;;;;;6.50;4.22;;;13.80;99.90;;;;;;5095168;28;20048;-68
2022/07/23 05:45:09;;;;;;;7.13;4.13;;;13.70;99.90;;;;;;5095077;28;20056;-70
2022/07/23 05:47:46;;;;;;;4.85;3.88;;;13.80;99.90;;;;;;5094928;28;20439;-68
2022/07/23 05:50:13;;;;;;;6.20;4.28;;;13.90;99.90;;;;;;5077072;28;20052;-71
2022/07/23 05:52:39;;;;;;;5.07;3.55;;;13.90;99.90;;;;;;5095095;28;20048;-71
2022/07/23 05:55:06;;;;;;;8.65;3.65;;;13.90;99.90;;;;;;5095131;28;20052;-69
2022/07/23 05:57:31;;;;;;;3.45;2.95;;;14.00;99.90;;;;;;5095081;28;20331;-69
2022/07/23 05:59:57;;;;;;;4.05;2.88;;;14.10;99.90;;;;;;5094943;28;20055;-69
2022/07/23 06:02:23;;;;;;;3.53;2.10;;;14.20;99.90;;;;;;5094970;28;20043;-70
2022/07/23 06:04:48;;;;;;;5.22;2.70;;;14.20;99.90;;;;;;5095054;28;20451;-68
2022/07/23 06:07:14;;;;;;;3.30;2.15;;;14.30;99.90;;;;;;5094824;28;20123;-71
2022/07/23 06:09:39;;;;;;;2.00;1.42;;;14.40;99.90;;;;;;5094998;28;20056;-68
2022/07/23 06:12:05;;;;;;;4.45;1.70;;;14.50;99.90;;;;;;5094931;28;20040;-68
2022/07/23 06:14:31;;;;;;;3.13;1.58;;;14.60;99.90;;;;;;5094820;28;20044;-69
2022/07/23 06:16:56;;;;;;;4.00;1.60;;;14.60;99.90;;;;;;5094875;28;20043;-68
2022/07/23 06:19:22;;;;;;;1.63;1.52;;;14.80;99.90;;;;;;5094559;28;20044;-68
2022/07/23 06:21:48;;;;;;;3.13;1.67;;;14.90;99.90;;;;;;5077029;28;20441;-69
2022/07/23 06:24:13;;;;;;;2.72;1.60;;;15.00;99.90;;;;;;5094953;28;20048;-68
2022/07/23 06:26:39;;;;;;;6.20;1.02;;;15.00;99.90;;;;;;5094862;28;20088;-71
2022/07/23 06:29:04;;;;;;;2.78;1.65;;;15.10;99.90;;;;;;5094737;28;20067;-70
2022/07/23 06:31:30;;;;;;;3.20;2.08;;;15.20;99.90;;;;;;5096880;28;20048;-68
2022/07/23 06:33:56;;;;;;;1.83;1.48;;;15.30;99.90;;;;;;5098670;28;20046;-68
2022/07/23 06:36:21;;;;;;;2.53;1.15;;;15.40;99.90;;;;;;5098517;28;20358;-69
2022/07/23 06:38:47;;;;;;;1.42;1.00;;;15.50;99.90;;;;;;5098786;28;20334;-71
2022/07/23 06:41:12;;;;;;;6.13;1.60;;;15.50;99.90;;;;;;5098377;28;20048;-70
2022/07/23 06:43:38;;;;;;;2.47;1.40;;;15.60;99.90;;;;;;5098151;28;20040;-68
2022/07/23 06:46:04;;;;;;;2.47;1.20;;;15.80;99.90;;;;;;5098096;28;20040;-68
2022/07/23 06:48:29;;;;;;;2.35;1.00;;;15.90;99.90;;;;;;5098104;28;20044;-70
2022/07/23 06:50:55;;;;;;;2.40;0.90;;;16.00;99.90;;;;;;5098097;28;20135;-69
2022/07/23 06:53:21;;;;;;;3.15;1.38;;;16.00;99.90;;;;;;5098348;28;20170;-70
2022/07/23 06:55:46;;;;;;;3.15;1.20;;;16.20;99.90;;;;;;5098155;28;20475;-70
2022/07/23 06:58:13;;;;;;;1.98;0.90;;;16.20;99.90;;;;;;5079750;28;20109;-70
2022/07/23 07:00:39;;;;;;;1.25;1.15;;;16.30;99.90;;;;;;5097883;28;20347;-70
2022/07/23 07:03:05;;;;;;;2.28;0.93;;;16.30;99.90;;;;;;5080190;28;20048;-70
2022/07/23 07:05:30;;;;;;;1.25;0.90;;;16.30;99.90;;;;;;5063276;28;20485;-68
2022/07/23 07:07:56;;;;;;;4.20;1.70;;;16.30;99.90;;;;;;5097852;28;20358;-70
2022/07/23 07:10:22;;;;;;;2.90;1.60;;;16.40;99.90;;;;;;5097658;28;20119;-68
2022/07/23 07:12:48;;;;;;;2.88;1.00;;;16.40;99.90;;;;;;5097750;28;20404;-68
2022/07/23 07:15:14;;;;;;;1.10;0.80;;;16.50;99.90;;;;;;5080093;28;20124;-71
2022/07/23 07:17:39;;;;;;;3.65;1.10;;;16.60;99.90;;;;;;5097299;28;20071;-70
2022/07/23 07:20:06;;;;;;;1.65;1.15;;;16.60;99.90;;;;;;5097601;28;20040;-71
2022/07/23 07:22:31;;;;;;;3.17;1.25;;;16.70;99.90;;;;;;5097540;28;20076;-71
2022/07/23 07:24:57;;;;;;;3.03;1.10;;;16.70;99.90;;;;;;5097568;28;20523;-71
2022/07/23 07:27:22;;;;;;;1.58;1.00;;;16.80;99.90;;;;;;5079253;28;20063;-69
2022/07/23 07:29:48;;;;;;;2.30;1.10;;;16.90;99.90;;;;;;5097363;28;20350;-70
2022/07/23 07:32:14;;;;;;;4.40;1.38;;;16.90;99.90;;;;;;5097288;28;20051;-70
2022/07/23 07:34:39;;;;;;;1.90;1.10;;;16.80;99.90;;;;;;5097271;28;20036;-69
2022/07/23 07:37:05;;;;;;;2.67;1.30;;;16.90;99.90;;;;;;5097449;28;20056;-67
2022/07/23 07:39:31;;;;;;;1.40;1.27;;;16.90;99.90;;;;;;5097575;28;20115;-67
2022/07/23 07:41:56;;;;;;;2.67;1.50;;;16.90;99.90;;;;;;5097722;28;20040;-71
2022/07/23 07:44:22;;;;;;;3.53;1.02;;;16.90;99.90;;;;;;5098291;28;20032;-71
2022/07/23 07:46:47;;;;;;;2.08;1.10;;;16.90;99.90;;;;;;5097877;28;20040;-67
2022/07/23 07:49:13;;;;;;;15.40;1.95;;;16.80;99.90;;;;;;5098081;28;20054;-68
2022/07/23 07:51:38;;;;;;;3.42;1.10;;;16.80;99.90;;;;;;5080433;28;20116;-69
2022/07/23 07:54:04;;;;;;;5.47;2.30;;;16.90;99.90;;;;;;5097495;28;20055;-69
2022/07/23 07:56:30;;;;;;;2.97;1.40;;;16.90;99.90;;;;;;5096963;28;20083;-70
2022/07/23 07:58:55;;;;;;;3.13;1.50;;;17.00;99.90;;;;;;5096715;28;20429;-71
2022/07/23 08:01:21;;;;;;;1.90;1.15;;;16.90;99.90;;;;;;5096669;28;20044;-68
2022/07/23 08:03:47;;;;;;;1.73;1.08;;;16.90;99.90;;;;;;5096673;28;20083;-69
2022/07/23 08:06:12;;;;;;;3.35;1.40;;;16.90;99.90;;;;;;5096754;28;20081;-69
2022/07/23 08:08:38;;;;;;;2.10;0.98;;;16.80;99.90;;;;;;5096664;28;20132;-69
2022/07/23 08:11:04;;;;;;;1.95;0.98;;;16.80;99.90;;;;;;5096732;28;20032;-68
2022/07/23 08:13:29;;;;;;;2.88;1.20;;;16.80;99.90;;;;;;5096576;28;20036;-69
2022/07/23 08:15:55;;;;;;;4.85;1.73;;;16.80;99.90;;;;;;5096513;28;20453;-69
2022/07/23 08:18:20;;;;;;;3.35;1.23;;;16.80;99.90;;;;;;5096482;28;20063;-68
2022/07/23 08:20:46;;;;;;;3.60;1.08;;;16.80;99.90;;;;;;5096259;28;20055;-68
2022/07/23 08:23:12;;;;;;;3.63;1.30;;;16.80;99.90;;;;;;5096417;28;20043;-70
2022/07/23 08:25:39;;;;;;;3.78;1.20;;;16.80;99.90;;;;;;5096393;28;20461;-70
2022/07/23 08:28:09;;;;;;;2.15;1.40;;;16.70;99.90;;;;;;5096031;28;20063;-71
2022/07/23 08:30:36;;;;;;;2.35;1.30;;;16.70;99.90;;;;;;5096392;28;20055;-68
2022/07/23 08:33:15;;;;;;;2.22;1.33;;;16.70;99.90;;;;;;5096194;28;20109;-69
2022/07/23 08:35:46;;;;;;;1.40;1.25;;;16.70;99.90;;;;;;5078407;28;20420;-70
2022/07/23 08:38:14;;;;;;;2.65;1.40;;;16.70;99.90;;;;;;5095968;28;20044;-69
2022/07/23 08:40:45;;;;;;;2.50;1.48;;;16.80;99.90;;;;;;5096087;28;20059;-68
2022/07/23 08:43:14;;;;;;;2.47;1.95;;;16.90;99.90;;;;;;5096172;28;20089;-68
2022/07/23 08:45:42;;;;;;;2.97;1.70;;;16.90;99.90;;;;;;5095899;28;20149;-68
2022/07/23 08:48:13;;;;;;;1.70;1.48;;;17.00;99.90;;;;;;5096143;28;20185;-68
2022/07/23 08:50:42;;;;;;;2.97;1.45;;;17.00;99.90;;;;;;5095701;28;20081;-70
2022/07/23 08:53:09;;;;;;;2.95;1.58;;;17.10;99.90;;;;;;5094973;28;20059;-71
2022/07/23 08:55:35;;;;;;;3.25;1.75;;;17.20;99.90;;;;;;5095834;28;20040;-67
2022/07/23 08:58:00;;;;;;;2.83;1.75;;;17.30;99.90;;;;;;5095770;28;20346;-70
2022/07/23 09:00:26;;;;;;;1.73;1.40;;;17.30;99.90;;;;;;5078063;28;20087;-70
2022/07/23 09:02:52;;;;;;;4.80;1.80;;;17.50;99.90;;;;;;5095700;28;20365;-69
2022/07/23 09:05:19;;;;;;;3.25;1.70;;;17.70;99.90;;;;;;5095630;28;20055;-68
2022/07/23 09:08:21;;;;;;;3.08;1.40;;;17.80;99.90;;;;;;5095193;28;20437;-68
2022/07/23 09:10:58;;;;;;;2.60;1.85;;;17.70;99.90;;;;;;4993888;28;20102;-69
2022/07/23 09:13:49;;;;;;;2.78;1.58;;;17.70;99.90;;;;;;5083017;28;20359;-68
2022/07/23 09:16:27;;;;;;;5.30;1.80;;;17.70;99.90;;;;;;5095296;28;20118;-71
2022/07/23 09:18:58;;;;;;;6.10;2.28;;;17.60;99.90;;;;;;5095359;28;20070;-69
2022/07/23 09:21:37;;;;;;;3.40;1.90;;;17.60;99.90;;;;;;5095312;28;20059;-67
2022/07/23 09:24:05;;;;;;;3.40;1.65;;;17.70;99.90;;;;;;5095309;28;20115;-69
2022/07/23 09:26:47;;;;;;;4.63;2.30;;;17.70;99.90;;;;;;5095335;28;20093;-68
2022/07/23 09:29:17;;;;;;;2.22;1.60;;;17.80;99.90;;;;;;5095588;28;20066;-68
2022/07/23 09:32:07;;;;;;;2.25;1.40;;;17.90;99.90;;;;;;5095120;28;20104;-69
2022/07/23 09:34:38;;;;;;;2.25;1.77;;;17.90;99.90;;;;;;5095208;28;20131;-69
2022/07/23 09:37:11;;;;;;;3.45;1.63;;;18.00;99.90;;;;;;5095144;28;20055;-69
2022/07/23 09:39:36;;;;;;;1.90;1.50;;;18.30;99.90;;;;;;5095037;28;20456;-71
2022/07/23 09:42:16;;;;;;;2.97;1.58;;;18.50;99.90;;;;;;5077263;28;20051;-69
2022/07/23 09:44:50;;;;;;;2.38;1.20;;;18.40;99.90;;;;;;5095152;28;20076;-68
2022/07/23 09:47:16;;;;;;;7.47;2.40;;;18.20;99.90;;;;;;5095178;28;20351;-68
2022/07/23 09:50:04;;;;;;;5.95;1.83;;;18.20;99.90;;;;;;5077379;28;20044;-70
2022/07/23 09:52:33;;;;;;;4.53;2.15;;;18.50;99.90;;;;;;5095125;28;20519;-68
2022/07/23 09:55:00;;;;;;;1.98;1.70;;;18.60;99.90;;;;;;5095018;28;20044;-68
2022/07/23 09:57:27;;;;;;;2.55;2.20;;;18.70;99.90;;;;;;5095150;28;20359;-69
2022/07/23 09:59:52;;;;;;;2.55;1.75;;;18.60;99.90;;;;;;5094716;28;20442;-68
2022/07/23 10:02:19;;;;;;;3.00;1.20;;;18.70;99.90;;;;;;5094895;28;20044;-68
2022/07/23 10:04:45;;;;;;;2.15;1.58;;;18.60;99.90;;;;;;5095738;28;20040;-70
2022/07/23 10:07:13;;;;;;;1.67;1.30;;;18.60;99.90;;;;;;5099128;28;20361;-70
2022/07/23 10:09:42;;;;;;;4.85;1.63;;;18.70;99.90;;;;;;5080810;28;20056;-69
2022/07/23 10:14:40;;;;;;;3.88;1.40;;;19.00;99.90;;;;;;5099093;28;20059;-71
2022/07/23 10:17:06;;;;;;;3.78;1.70;;;19.00;99.90;;;;;;5098803;28;20101;-70
2022/07/23 10:19:33;;;;;;;3.53;1.63;;;19.20;99.90;;;;;;5098873;28;20098;-68
2022/07/23 10:22:01;;;;;;;3.35;1.42;;;19.30;99.90;;;;;;5098783;28;20044;-69
2022/07/23 10:25:00;;;;;;;4.70;2.05;;;19.70;99.90;;;;;;5098650;28;20121;-69
2022/07/23 10:27:43;;;;;;;4.35;1.40;;;19.50;99.90;;;;;;5080833;28;20056;-69
2022/07/23 10:30:22;;;;;;;5.72;1.63;;;19.30;99.90;;;;;;5098569;28;20047;-69
2022/07/23 10:33:06;;;;;;;4.05;1.67;;;19.00;99.90;;;;;;5098471;28;20401;-70
2022/07/23 10:35:37;;;;;;;4.00;1.52;;;19.20;99.90;;;;;;5098240;28;20470;-70
2022/07/23 10:38:12;;;;;;;6.25;2.05;;;19.50;99.90;;;;;;5098467;28;20420;-71
2022/07/23 10:40:59;;;;;;;1.95;1.30;;;19.30;99.90;;;;;;5098561;28;20040;-68
2022/07/23 10:43:26;;;;;;;5.05;1.80;;;19.20;99.90;;;;;;5098510;28;20052;-67
2022/07/23 10:45:52;;;;;;;3.20;1.63;;;19.50;99.90;;;;;;5098138;28;20056;-69
2022/07/23 10:48:20;;;;;;;2.90;1.70;;;19.70;99.90;;;;;;5098318;28;20058;-69
2022/07/23 10:51:06;;;;;;;2.20;1.40;;;19.80;99.90;;;;;;5098396;28;20079;-68
2022/07/23 10:53:57;;;;;;;3.70;1.35;;;20.00;99.90;;;;;;5100078;28;20050;-70
2022/07/23 10:56:48;;;;;;;1.40;1.10;;;19.90;99.90;;;;;;5099863;28;20036;-70
2022/07/23 10:59:14;;;;;;;1.92;1.55;;;19.90;99.90;;;;;;5099948;28;20067;-70
2022/07/23 11:01:40;;;;;;;1.58;1.35;;;19.90;99.90;;;;;;5099896;28;20040;-68
2022/07/23 11:04:07;;;;;;;3.45;1.55;;;20.20;99.90;;;;;;5082022;28;20044;-68
2022/07/23 11:06:48;;;;;;;4.30;1.90;;;20.00;99.90;;;;;;5098279;28;20040;-69
2022/07/23 11:09:25;;;;;;;3.25;2.22;;;19.90;99.90;;;;;;5097677;28;20048;-70
2022/07/23 11:12:14;;;;;;;3.63;1.55;;;20.00;99.90;;;;;;5097942;28;20083;-69
2022/07/23 11:15:04;;;;;;;3.75;1.65;;;20.20;99.90;;;;;;5097742;28;20055;-69
2022/07/23 11:17:31;;;;;;;2.65;1.83;;;20.30;99.90;;;;;;5097101;28;20043;-68
2022/07/23 11:20:09;;;;;;;3.22;1.40;;;20.30;99.90;;;;;;5079938;28;20097;-69
2022/07/23 11:22:44;;;;;;;3.08;1.80;;;20.30;99.90;;;;;;5097478;28;20051;-69
2022/07/23 11:25:11;;;;;;;2.20;1.58;;;20.20;99.90;;;;;;5097370;28;20055;-72
2022/07/23 11:27:43;;;;;;;3.65;1.50;;;20.40;99.90;;;;;;5097202;28;20052;-67
2022/07/23 11:30:10;;;;;;;5.32;1.67;;;20.70;99.90;;;;;;5097418;28;20044;-68
2022/07/23 11:32:40;;;;;;;2.05;1.50;;;20.90;99.90;;;;;;5097179;28;20048;-70
2022/07/23 11:35:19;;;;;;;4.35;1.65;;;21.00;99.90;;;;;;5097217;28;20036;-68
2022/07/23 11:37:46;;;;;;;3.65;1.55;;;20.90;99.90;;;;;;5079841;28;20048;-70
2022/07/23 11:40:15;;;;;;;2.53;1.65;;;21.20;99.90;;;;;;5097222;28;20055;-69
2022/07/23 11:42:53;;;;;;;4.07;1.55;;;21.00;99.90;;;;;;5097203;28;20052;-68
2022/07/23 11:45:19;;;;;;;4.72;1.40;;;21.20;99.90;;;;;;5097079;28;20040;-68
2022/07/23 11:47:45;;;;;;;3.55;1.67;;;21.40;99.90;;;;;;5096955;28;20411;-73
2022/07/23 11:50:10;;;;;;;4.60;1.65;;;21.60;99.90;;;;;;5096942;28;20059;-71
2022/07/23 11:52:36;;;;;;;3.72;1.88;;;21.40;99.90;;;;;;5079202;28;20044;-71
2022/07/23 11:55:07;;;;;;;2.63;1.50;;;21.80;99.90;;;;;;5096791;28;20466;-71
2022/07/23 11:57:38;;;;;;;2.08;1.70;;;21.70;99.90;;;;;;5078814;28;20054;-71
2022/07/23 12:00:07;;;;;;;3.60;1.55;;;22.00;99.90;;;;;;5097047;28;20370;-71
2022/07/23 12:02:33;;;;;;;2.63;1.67;;;22.30;99.90;;;;;;5079355;28;20063;-71
2022/07/23 12:04:58;;;;;;;2.85;1.63;;;22.60;99.90;;;;;;5096671;28;20040;-70
2022/07/23 12:07:36;;;;;;;2.30;1.48;;;22.60;99.90;;;;;;5096628;28;20044;-72
2022/07/23 12:10:15;;;;;;;3.90;1.33;;;22.10;99.90;;;;;;5096597;28;20048;-70
2022/07/23 12:12:49;;;;;;;2.33;1.30;;;22.80;99.90;;;;;;5096613;28;20044;-70
2022/07/23 12:15:16;;;;;;;2.95;1.48;;;22.40;99.90;;;;;;5096349;28;20032;-72
2022/07/23 12:17:45;;;;;;;3.38;1.77;;;22.40;99.90;;;;;;5096480;28;20123;-72
2022/07/23 12:20:17;;;;;;;2.88;1.60;;;22.60;99.90;;;;;;5096371;28;20047;-71
2022/07/23 12:22:46;;;;;;;3.05;1.63;;;22.80;99.90;;;;;;5096043;28;20058;-69
2022/07/23 12:25:17;;;;;;;6.45;2.20;;;22.70;99.90;;;;;;5096337;28;20135;-69
2022/07/23 12:27:43;;;;;;;1.98;1.60;;;23.00;99.90;;;;;;5095786;28;20087;-71
2022/07/23 12:30:42;;;;;;;2.42;1.40;;;22.80;99.90;;;;;;5095870;28;20362;-70
2022/07/23 12:33:26;;;;;;;2.75;1.70;;;22.60;99.90;;;;;;5062723;28;20117;-70
2022/07/23 12:35:55;;;;;;;3.78;1.52;;;23.00;99.90;;;;;;5096240;28;20055;-70
2022/07/23 12:38:22;;;;;;;3.55;1.88;;;22.80;99.90;;;;;;5096024;28;20086;-72
2022/07/23 12:40:51;;;;;;;3.05;1.70;;;23.10;99.90;;;;;;5096217;28;20107;-71
2022/07/23 12:43:31;;;;;;;4.53;1.75;;;23.30;99.90;;;;;;5096191;28;20426;-71
2022/07/23 12:46:07;;;;;;;2.33;1.40;;;23.20;99.90;;;;;;5095934;28;20040;-70
2022/07/23 12:48:36;;;;;;;2.58;1.77;;;23.50;99.90;;;;;;5095903;28;20120;-69
2022/07/23 12:51:13;;;;;;;3.53;1.60;;;23.30;99.90;;;;;;5096026;28;20075;-71